Farmersville's Hourly Summary for Sunday, July 8, 2018
Hour Temp
(f)
RH
(%)
Solar Rad.
(MJ/m2)
Rainfall
(in)
Wind
(mph)
7/8/2018 12:00 AM 79 70 0 0 0.34
7/8/2018 1:00 AM 78 72 0 0 0.29
7/8/2018 2:00 AM 76 77 0 0 0.09
7/8/2018 3:00 AM 75 80 0 0 0
7/8/2018 4:00 AM 74 84 0 0 0
7/8/2018 5:00 AM 74 84 0 0 0.16
7/8/2018 6:00 AM 74 83 0 0 0.38
7/8/2018 7:00 AM 74 83 0.02 0 0.64
7/8/2018 8:00 AM 75 79 0.39 0 1.21
7/8/2018 9:00 AM 80 68 1.01 0 1.14
7/8/2018 10:00 AM 84 62 1.58 0 1.62
7/8/2018 11:00 AM 87 54 2.01 0 2.05
7/8/2018 12:00 PM 90 50 2.6 0 2.65
7/8/2018 1:00 PM 92 45 2.85 0 2.97
7/8/2018 2:00 PM 94 38 2.96 0 2.84
7/8/2018 3:00 PM 94 37 2.39 0 3.27
7/8/2018 4:00 PM 95 36 2.47 0 3.2
7/8/2018 5:00 PM 95 35 2.23 0 3.18
7/8/2018 6:00 PM 95 36 1.69 0 2.94
7/8/2018 7:00 PM 94 35 1.15 0 2.55
7/8/2018 8:00 PM 91 38 0.6 0 2.41
7/8/2018 9:00 PM 81 53 0.08 0 2.33
7/8/2018 10:00 PM 79 69 0 0 0.26
7/8/2018 11:00 PM 79 73 0 0 0.09
Data Summary 83 60 24.03 0.00 1.53